createdAt,value
2023-05-02T00:00:28.475Z,64.80
2023-05-02T00:01:28.480Z,66.50
2023-05-02T00:02:28.553Z,65.90
2023-05-02T00:03:28.496Z,67.40
2023-05-02T00:04:28.523Z,64.50
2023-05-02T00:05:28.393Z,68.10
2023-05-02T00:06:28.404Z,67.10
2023-05-02T00:07:28.387Z,65.40
2023-05-02T00:08:28.352Z,72.80
2023-05-02T00:09:28.331Z,73.80
2023-05-02T00:10:28.342Z,68.90
2023-05-02T00:11:28.319Z,70.50
2023-05-02T00:12:28.301Z,72.00
2023-05-02T00:13:28.273Z,68.90
2023-05-02T00:14:28.262Z,74.10
2023-05-02T00:15:28.263Z,70.00
2023-05-02T00:16:28.281Z,74.60
2023-05-02T00:17:28.247Z,70.10
2023-05-02T00:18:28.227Z,71.80
2023-05-02T00:19:28.180Z,71.40
2023-05-02T00:20:28.203Z,72.50
2023-05-02T00:21:28.197Z,72.30
2023-05-02T00:22:28.154Z,69.80
2023-05-02T00:23:28.145Z,74.00
2023-05-02T00:24:28.167Z,74.20
2023-05-02T00:25:28.112Z,76.30
2023-05-02T00:26:28.116Z,81.00
2023-05-02T00:27:28.094Z,75.90
2023-05-02T00:28:28.073Z,76.30
2023-05-02T00:29:28.072Z,78.70
2023-05-02T00:30:28.091Z,77.60
2023-05-02T00:31:28.085Z,81.40
2023-05-02T00:32:28.104Z,77.60
2023-05-02T00:33:28.001Z,89.40
2023-05-02T00:34:28.020Z,88.20
2023-05-02T00:35:27.985Z,84.40
2023-05-02T00:36:27.995Z,91.90
2023-05-02T00:37:27.963Z,90.00
2023-05-02T00:38:27.958Z,93.80
2023-05-02T00:39:27.924Z,90.80
2023-05-02T00:40:27.917Z,94.00
2023-05-02T00:41:27.911Z,99.30
2023-05-02T00:42:27.919Z,88.80
2023-05-02T00:43:27.859Z,96.00
2023-05-02T00:44:27.868Z,98.10
2023-05-02T00:45:27.835Z,93.70
2023-05-02T00:46:27.970Z,95.40
2023-05-02T00:47:27.825Z,95.90
2023-05-02T00:48:27.856Z,98.90
2023-05-02T00:49:27.792Z,100.60
2023-05-02T00:50:27.767Z,99.50
2023-05-02T00:51:27.857Z,96.60
2023-05-02T00:52:27.751Z,103.80
2023-05-02T00:53:27.727Z,102.70
2023-05-02T00:54:27.728Z,106.20
2023-05-02T00:55:27.728Z,103.30
2023-05-02T00:56:27.709Z,106.00
2023-05-02T00:57:27.679Z,101.30
2023-05-02T00:58:27.660Z,102.00
2023-05-02T00:59:27.647Z,108.50
2023-05-02T01:00:28.395Z,109.80
2023-05-02T01:01:27.706Z,107.80
2023-05-02T01:02:27.678Z,104.10
2023-05-02T01:03:27.654Z,106.90
2023-05-02T01:04:27.588Z,110.70
2023-05-02T01:05:27.586Z,101.00
2023-05-02T01:06:27.606Z,107.10
2023-05-02T01:07:27.545Z,105.90
2023-05-02T01:08:27.534Z,106.70
2023-05-02T01:09:27.523Z,102.70
2023-05-02T01:10:27.519Z,104.90
2023-05-02T01:11:27.504Z,106.70
2023-05-02T01:12:27.468Z,111.20
2023-05-02T01:13:27.466Z,104.90
2023-05-02T01:14:27.449Z,106.00
2023-05-02T01:15:27.495Z,106.90
2023-05-02T01:16:27.502Z,109.40
2023-05-02T01:17:27.407Z,106.70
2023-05-02T01:18:27.399Z,111.60
2023-05-02T01:19:27.365Z,116.90
2023-05-02T01:20:27.419Z,107.90
2023-05-02T01:21:27.357Z,119.00
2023-05-02T01:22:27.355Z,117.80
2023-05-02T01:23:27.315Z,121.80
2023-05-02T01:24:27.311Z,124.10
2023-05-02T01:25:27.307Z,115.30
2023-05-02T01:26:27.312Z,117.10
2023-05-02T01:27:27.291Z,115.90
2023-05-02T01:28:27.254Z,128.20
2023-05-02T01:29:27.247Z,126.30
2023-05-02T01:30:27.248Z,126.00
2023-05-02T01:31:27.268Z,126.50
2023-05-02T01:32:27.252Z,118.90
2023-05-02T01:33:27.205Z,115.40
2023-05-02T01:34:27.219Z,113.70
2023-05-02T01:35:27.190Z,109.50
2023-05-02T01:36:27.183Z,113.10
2023-05-02T01:37:27.144Z,107.80
2023-05-02T01:38:27.132Z,109.30
2023-05-02T01:39:27.122Z,106.30
2023-05-02T01:40:27.123Z,103.30
2023-05-02T01:41:27.121Z,107.30
2023-05-02T01:42:27.104Z,109.20
2023-05-02T01:43:27.067Z,103.30
2023-05-02T01:44:27.065Z,103.80
2023-05-02T01:45:27.035Z,104.90
2023-05-02T01:46:27.085Z,102.70
2023-05-02T01:47:27.029Z,105.90
2023-05-02T01:48:26.997Z,100.90
2023-05-02T01:49:26.999Z,102.80
2023-05-02T01:50:26.995Z,108.20
2023-05-02T01:51:26.992Z,105.40
2023-05-02T01:52:26.951Z,99.10
2023-05-02T01:53:26.938Z,95.10
2023-05-02T01:54:26.915Z,93.80
2023-05-02T01:55:26.900Z,102.30
2023-05-02T01:56:26.917Z,94.60
2023-05-02T01:57:26.901Z,94.30
2023-05-02T01:58:26.862Z,94.60
2023-05-02T01:59:26.865Z,94.20
2023-05-02T02:00:26.881Z,91.80
2023-05-02T02:01:26.877Z,94.30
2023-05-02T02:02:26.818Z,100.10
2023-05-02T02:03:26.844Z,99.60
2023-05-02T02:04:26.854Z,91.80
2023-05-02T02:05:26.773Z,91.60
2023-05-02T02:06:26.821Z,90.80
2023-05-02T02:07:26.755Z,91.90
2023-05-02T02:08:26.740Z,92.70
2023-05-02T02:09:26.696Z,90.00
2023-05-02T02:10:26.701Z,92.90
2023-05-02T02:11:26.723Z,86.30
2023-05-02T02:12:26.689Z,90.70
2023-05-02T02:13:26.663Z,84.80
2023-05-02T02:14:26.658Z,91.00
2023-05-02T02:15:26.656Z,87.10
2023-05-02T02:16:26.698Z,90.00
2023-05-02T02:17:26.645Z,89.60
2023-05-02T02:18:26.624Z,93.90
2023-05-02T02:19:26.575Z,92.80
2023-05-02T02:20:26.580Z,82.10
2023-05-02T02:21:26.575Z,86.70
2023-05-02T02:22:26.538Z,85.80
2023-05-02T02:23:26.532Z,83.40
2023-05-02T02:24:26.511Z,85.00
2023-05-02T02:25:26.488Z,82.20
2023-05-02T02:26:26.507Z,86.90
2023-05-02T02:27:26.460Z,85.80
2023-05-02T02:28:26.463Z,84.90
2023-05-02T02:29:26.431Z,84.10
2023-05-02T02:30:26.455Z,85.80
2023-05-02T02:31:26.437Z,83.10
2023-05-02T02:32:26.415Z,80.30
2023-05-02T02:33:26.383Z,84.10
2023-05-02T02:34:26.380Z,86.80
2023-05-02T02:35:26.377Z,83.40
2023-05-02T02:36:26.338Z,80.20
2023-05-02T02:37:26.342Z,83.30
2023-05-02T02:38:26.309Z,80.00
2023-05-02T02:39:26.528Z,76.40
2023-05-02T02:40:26.302Z,80.60
2023-05-02T02:41:26.289Z,84.70
2023-05-02T02:42:26.258Z,84.80
2023-05-02T02:43:26.252Z,75.80
2023-05-02T02:44:26.218Z,75.60
2023-05-02T02:45:26.249Z,83.80
2023-05-02T02:46:26.279Z,80.60
2023-05-02T02:47:26.208Z,81.50
2023-05-02T02:48:26.176Z,82.40
2023-05-02T02:49:26.171Z,78.20
2023-05-02T02:50:26.207Z,80.80
2023-05-02T02:51:26.138Z,85.50
2023-05-02T02:52:26.126Z,81.30
2023-05-02T02:53:26.112Z,84.80
2023-05-02T02:54:27.410Z,82.50
2023-05-02T02:55:26.102Z,82.50
2023-05-02T02:56:26.066Z,78.40
2023-05-02T02:57:26.050Z,76.00
2023-05-02T02:58:26.040Z,78.00
2023-05-02T02:59:26.032Z,82.50
2023-05-02T03:00:26.054Z,75.90
2023-05-02T03:01:26.083Z,80.20
2023-05-02T03:02:25.989Z,80.30
2023-05-02T03:03:26.003Z,82.10
2023-05-02T03:04:25.954Z,82.70
2023-05-02T03:05:26.130Z,75.80
2023-05-02T03:06:26.054Z,80.40
2023-05-02T03:07:25.931Z,83.40
2023-05-02T03:08:25.926Z,79.20
2023-05-02T03:09:25.897Z,81.70
2023-05-02T03:10:25.884Z,79.70
2023-05-02T03:11:26.739Z,79.90
2023-05-02T03:12:25.861Z,81.10
2023-05-02T03:13:25.844Z,83.80
2023-05-02T03:14:25.825Z,80.70
2023-05-02T03:15:25.817Z,78.80
2023-05-02T03:16:25.898Z,83.20
2023-05-02T03:17:26.369Z,78.70
2023-05-02T03:18:25.766Z,76.00
2023-05-02T03:19:25.776Z,77.00
2023-05-02T03:20:25.736Z,76.40
2023-05-02T03:21:25.742Z,77.00
2023-05-02T03:22:25.714Z,80.80
2023-05-02T03:23:25.704Z,83.90
2023-05-02T03:24:25.750Z,81.70
2023-05-02T03:25:25.681Z,79.40
2023-05-02T03:26:25.670Z,80.70
2023-05-02T03:27:25.652Z,78.70
2023-05-02T03:28:25.633Z,79.10
2023-05-02T03:29:25.628Z,77.00
2023-05-02T03:30:25.614Z,73.00
2023-05-02T03:31:26.659Z,78.50
2023-05-02T03:32:25.589Z,76.40
2023-05-02T03:33:25.600Z,76.90
2023-05-02T03:34:25.549Z,75.70
2023-05-02T03:35:25.550Z,76.30
2023-05-02T03:36:25.525Z,79.20
2023-05-02T03:37:25.521Z,78.30
2023-05-02T03:38:25.506Z,74.70
2023-05-02T03:39:25.492Z,72.90
2023-05-02T03:40:25.497Z,73.70
2023-05-02T03:41:25.476Z,74.50
2023-05-02T03:42:25.439Z,73.20
2023-05-02T03:43:25.443Z,73.60
2023-05-02T03:44:25.413Z,73.00
2023-05-02T03:45:25.422Z,75.70
2023-05-02T03:46:25.405Z,73.20
2023-05-02T03:47:25.390Z,71.60
2023-05-02T03:48:25.354Z,65.20
2023-05-02T03:49:25.405Z,65.20
2023-05-02T03:50:25.341Z,64.90
2023-05-02T03:51:25.327Z,69.00
2023-05-02T03:52:25.300Z,65.80
2023-05-02T03:53:25.292Z,71.50
2023-05-02T03:54:25.299Z,69.90
2023-05-02T03:55:25.304Z,69.80
2023-05-02T03:56:25.273Z,65.20
2023-05-02T03:57:25.277Z,62.20
2023-05-02T03:58:25.218Z,60.60
2023-05-02T03:59:25.222Z,63.10
2023-05-02T04:00:25.208Z,62.10
2023-05-02T04:01:25.204Z,66.10
2023-05-02T04:02:25.265Z,64.00
2023-05-02T04:03:26.220Z,61.90
2023-05-02T04:04:25.169Z,67.00
2023-05-02T04:05:25.130Z,60.00
2023-05-02T04:06:25.188Z,61.80
2023-05-02T04:07:25.116Z,66.60
2023-05-02T04:08:25.098Z,60.50
2023-05-02T04:09:25.239Z,61.40
2023-05-02T04:10:25.074Z,62.00
2023-05-02T04:11:25.055Z,64.90
2023-05-02T04:12:25.033Z,63.80
2023-05-02T04:13:25.017Z,63.50
2023-05-02T04:14:25.005Z,67.40
2023-05-02T04:15:25.016Z,73.60
2023-05-02T04:16:25.007Z,68.10
2023-05-02T04:17:25.117Z,73.30
2023-05-02T04:18:24.948Z,73.50
2023-05-02T04:19:24.934Z,79.30
2023-05-02T04:20:24.938Z,76.30
2023-05-02T04:21:24.935Z,67.50
2023-05-02T04:22:24.884Z,71.60
2023-05-02T04:23:24.905Z,68.70
2023-05-02T04:24:24.865Z,68.90
2023-05-02T04:25:24.860Z,70.00
2023-05-02T04:26:24.870Z,68.00
2023-05-02T04:27:24.851Z,68.10
2023-05-02T04:28:24.818Z,73.30
2023-05-02T04:29:24.818Z,69.00
2023-05-02T04:30:24.773Z,70.60
2023-05-02T04:31:24.899Z,72.90
2023-05-02T04:32:24.778Z,71.00
2023-05-02T04:33:24.745Z,69.70
2023-05-02T04:34:24.728Z,67.90
2023-05-02T04:35:24.741Z,67.50
2023-05-02T04:36:24.715Z,66.40
2023-05-02T04:37:24.694Z,66.90
2023-05-02T04:38:24.708Z,67.20
2023-05-02T04:39:24.698Z,60.50
2023-05-02T04:40:24.662Z,64.80
2023-05-02T04:41:24.671Z,58.30
2023-05-02T04:42:24.620Z,62.10
2023-05-02T04:43:24.974Z,62.20
2023-05-02T04:44:24.589Z,53.90
2023-05-02T04:45:24.634Z,51.20
2023-05-02T04:46:24.643Z,55.10
2023-05-02T04:47:24.559Z,50.70
2023-05-02T04:48:24.534Z,51.60
2023-05-02T04:49:24.534Z,48.70
2023-05-02T04:50:24.515Z,57.00
2023-05-02T04:51:24.517Z,50.20
2023-05-02T04:52:24.506Z,53.20
2023-05-02T04:53:24.494Z,54.30
2023-05-02T04:54:24.609Z,51.80
2023-05-02T04:55:24.443Z,63.20
2023-05-02T04:56:24.689Z,56.20
2023-05-02T04:57:24.416Z,56.10
2023-05-02T04:58:24.412Z,77.00
2023-05-02T04:59:24.401Z,67.90
2023-05-02T05:00:24.353Z,71.70
2023-05-02T05:01:24.481Z,67.00
2023-05-02T05:02:24.416Z,70.70
2023-05-02T05:03:24.442Z,66.10
2023-05-02T05:04:24.354Z,73.20
2023-05-02T05:05:24.355Z,70.40
2023-05-02T05:06:24.367Z,87.00
2023-05-02T05:07:24.283Z,74.00
2023-05-02T05:08:24.267Z,71.90
2023-05-02T05:09:24.253Z,74.80
2023-05-02T05:10:24.251Z,81.90
2023-05-02T05:11:24.225Z,78.50
2023-05-02T05:12:24.220Z,74.10
2023-05-02T05:13:24.214Z,79.90
2023-05-02T05:14:24.191Z,74.70
2023-05-02T05:15:24.187Z,73.80
2023-05-02T05:16:24.237Z,73.20
2023-05-02T05:17:24.242Z,69.60
2023-05-02T05:18:24.111Z,73.60
2023-05-02T05:19:24.142Z,70.30
2023-05-02T05:20:24.099Z,72.20
2023-05-02T05:21:24.123Z,67.20
2023-05-02T05:22:24.114Z,70.20
2023-05-02T05:23:24.087Z,74.10
2023-05-02T05:24:24.056Z,67.20
2023-05-02T05:25:24.022Z,73.90
2023-05-02T05:26:24.054Z,83.80
2023-05-02T05:27:24.018Z,84.70
2023-05-02T05:28:23.980Z,86.00
2023-05-02T05:29:23.997Z,86.60
2023-05-02T05:30:24.005Z,88.50
2023-05-02T05:31:23.976Z,93.40
2023-05-02T05:32:23.977Z,111.10
2023-05-02T05:33:24.039Z,95.00
2023-05-02T05:34:23.921Z,109.40
2023-05-02T05:35:23.894Z,138.20
2023-05-02T05:36:23.958Z,154.40
2023-05-02T05:37:23.874Z,170.60
2023-05-02T05:38:23.852Z,170.70
2023-05-02T05:39:23.889Z,134.80
2023-05-02T05:40:23.814Z,154.90
2023-05-02T05:41:23.831Z,163.50
2023-05-02T05:42:23.831Z,142.60
2023-05-02T05:43:23.819Z,142.00
2023-05-02T05:44:23.766Z,158.80
2023-05-02T05:45:23.773Z,153.10
2023-05-02T05:46:23.775Z,130.80
2023-05-02T05:47:24.047Z,124.60
2023-05-02T05:48:23.762Z,113.00
2023-05-02T05:49:23.707Z,111.30
2023-05-02T05:50:23.682Z,119.30
2023-05-02T05:51:23.690Z,92.30
2023-05-02T05:52:23.666Z,88.30
2023-05-02T05:53:23.664Z,75.50
2023-05-02T05:54:23.724Z,62.90
2023-05-02T05:55:23.624Z,49.90
2023-05-02T05:56:23.714Z,44.10
2023-05-02T05:57:23.708Z,37.00
2023-05-02T05:58:23.610Z,38.10
2023-05-02T05:59:23.582Z,30.20
2023-05-02T06:00:23.554Z,35.10
2023-05-02T06:01:23.555Z,32.00
2023-05-02T06:02:23.671Z,30.70
2023-05-02T06:03:23.793Z,33.00
2023-05-02T06:04:23.500Z,30.90
2023-05-02T06:05:23.494Z,29.20
2023-05-02T06:06:23.549Z,33.60
2023-05-02T06:07:23.464Z,30.50
2023-05-02T06:08:23.442Z,34.30
2023-05-02T06:09:23.430Z,29.00
2023-05-02T06:10:23.418Z,25.20
2023-05-02T06:11:23.452Z,26.70
2023-05-02T06:12:23.389Z,27.40
2023-05-02T06:13:23.376Z,30.80
2023-05-02T06:14:23.351Z,25.20
2023-05-02T06:15:23.347Z,27.00
2023-05-02T06:16:23.411Z,22.50
2023-05-02T06:17:23.412Z,23.20
2023-05-02T06:18:23.301Z,22.10
2023-05-02T06:19:23.313Z,23.90
2023-05-02T06:20:23.304Z,23.60
2023-05-02T06:21:23.298Z,20.10
2023-05-02T06:22:23.245Z,22.10
2023-05-02T06:23:23.251Z,24.90
2023-05-02T06:24:23.221Z,22.10
2023-05-02T06:25:23.211Z,23.10
2023-05-02T06:26:23.207Z,27.50
2023-05-02T06:27:23.180Z,26.80
2023-05-02T06:28:23.157Z,22.30
2023-05-02T06:29:23.144Z,22.60
2023-05-02T06:30:23.154Z,21.60
2023-05-02T06:31:23.231Z,21.80
2023-05-02T06:32:23.101Z,15.80
2023-05-02T06:33:23.102Z,19.10
2023-05-02T06:34:23.074Z,16.80
2023-05-02T06:35:23.063Z,19.50
2023-05-02T06:36:23.084Z,21.30
2023-05-02T06:37:23.053Z,22.60
2023-05-02T06:38:23.036Z,17.60
2023-05-02T06:39:23.049Z,18.60
2023-05-02T06:40:22.989Z,18.50
2023-05-02T06:41:23.010Z,18.70
2023-05-02T06:42:22.997Z,19.20
2023-05-02T06:43:22.958Z,21.90
2023-05-02T06:44:22.951Z,19.50
2023-05-02T06:45:22.956Z,15.40
2023-05-02T06:46:23.028Z,18.30
2023-05-02T06:47:23.059Z,19.30
2023-05-02T06:48:22.936Z,24.10
2023-05-02T06:49:22.884Z,18.50
2023-05-02T06:50:22.877Z,20.40
2023-05-02T06:51:22.872Z,17.50
2023-05-02T06:52:22.841Z,18.50
2023-05-02T06:53:22.817Z,17.40
2023-05-02T06:54:22.824Z,15.20
2023-05-02T06:55:22.786Z,17.60
2023-05-02T06:56:22.806Z,16.00
2023-05-02T06:57:22.771Z,13.00
2023-05-02T06:58:22.765Z,19.20
2023-05-02T06:59:22.732Z,14.20
2023-05-02T07:00:22.736Z,19.50
2023-05-02T07:01:22.763Z,11.30
2023-05-02T07:02:22.780Z,14.50
2023-05-02T07:03:22.688Z,17.20
2023-05-02T07:04:22.762Z,19.80
2023-05-02T07:05:22.669Z,13.40
2023-05-02T07:06:22.719Z,17.20
2023-05-02T07:07:22.647Z,15.70
2023-05-02T07:08:22.630Z,16.00
2023-05-02T07:09:22.626Z,12.40
2023-05-02T07:10:22.613Z,15.10
2023-05-02T07:11:22.586Z,13.10
2023-05-02T07:12:22.571Z,14.80
2023-05-02T07:13:22.557Z,10.70
2023-05-02T07:14:22.557Z,14.80
2023-05-02T07:15:22.512Z,14.70
2023-05-02T07:16:22.572Z,16.00
2023-05-02T07:17:22.493Z,13.60
2023-05-02T07:18:22.476Z,16.40
2023-05-02T07:19:22.466Z,11.40
2023-05-02T07:20:22.445Z,13.80
2023-05-02T07:21:22.451Z,17.40
2023-05-02T07:22:22.428Z,13.20
2023-05-02T07:23:22.400Z,13.30
2023-05-02T07:24:22.390Z,15.60
2023-05-02T07:25:22.401Z,13.10
2023-05-02T07:26:22.398Z,10.80
2023-05-02T07:27:22.376Z,12.30
2023-05-02T07:28:22.359Z,15.40
2023-05-02T07:29:22.331Z,13.30
2023-05-02T07:30:22.324Z,10.80
2023-05-02T07:31:22.326Z,12.40
2023-05-02T07:32:22.468Z,14.00
2023-05-02T07:33:22.332Z,11.40
2023-05-02T07:34:22.264Z,14.10
2023-05-02T07:35:22.262Z,9.10
2023-05-02T07:36:22.252Z,11.70
2023-05-02T07:37:22.238Z,13.00
2023-05-02T07:38:22.213Z,14.00
2023-05-02T07:39:23.800Z,8.50
2023-05-02T07:40:22.188Z,8.80
2023-05-02T07:41:22.177Z,14.60
2023-05-02T07:42:22.157Z,13.20
2023-05-02T07:43:22.147Z,12.20
2023-05-02T07:44:22.130Z,14.60
2023-05-02T07:45:22.124Z,10.80
2023-05-02T07:46:22.172Z,12.10
2023-05-02T07:47:22.111Z,15.00
2023-05-02T07:48:22.082Z,11.00
2023-05-02T07:49:22.064Z,14.30
2023-05-02T07:50:22.064Z,11.60
2023-05-02T07:51:22.062Z,10.40
2023-05-02T07:52:22.028Z,9.30
2023-05-02T07:53:22.003Z,9.50
2023-05-02T07:54:22.005Z,9.90
2023-05-02T07:55:21.992Z,6.90
2023-05-02T07:56:22.035Z,8.70
2023-05-02T07:57:21.993Z,10.50
2023-05-02T07:58:21.948Z,10.50
2023-05-02T07:59:21.960Z,12.20
2023-05-02T08:00:21.920Z,11.30
2023-05-02T08:01:21.943Z,10.20
2023-05-02T08:02:21.989Z,10.80
2023-05-02T08:03:22.043Z,10.00
2023-05-02T08:04:21.988Z,10.90
2023-05-02T08:05:21.862Z,10.80
2023-05-02T08:06:21.912Z,12.90
2023-05-02T08:07:21.811Z,8.20
2023-05-02T08:08:21.812Z,8.40
2023-05-02T08:09:21.820Z,10.40
2023-05-02T08:10:21.780Z,9.30
2023-05-02T08:11:22.579Z,9.80
2023-05-02T08:12:21.777Z,9.90
2023-05-02T08:13:21.736Z,8.20
2023-05-02T08:14:21.738Z,11.90
2023-05-02T08:15:21.792Z,7.10
2023-05-02T08:16:21.747Z,9.80
2023-05-02T08:17:21.751Z,10.10
2023-05-02T08:18:21.676Z,15.70
2023-05-02T08:19:21.664Z,10.30
2023-05-02T08:20:21.676Z,13.50
2023-05-02T08:21:21.656Z,8.40
2023-05-02T08:22:21.617Z,10.90
2023-05-02T08:23:21.591Z,9.70
2023-05-02T08:24:21.597Z,9.00
2023-05-02T08:25:21.554Z,9.00
2023-05-02T08:26:21.566Z,8.70
2023-05-02T08:27:21.542Z,9.20
2023-05-02T08:28:21.527Z,8.70
2023-05-02T08:29:21.507Z,10.30
2023-05-02T08:30:21.537Z,11.70
2023-05-02T08:31:21.549Z,8.70
2023-05-02T08:32:21.467Z,13.30
2023-05-02T08:33:21.521Z,11.20
2023-05-02T08:34:21.529Z,10.70
2023-05-02T08:35:21.432Z,11.40
2023-05-02T08:36:21.440Z,10.00
2023-05-02T08:37:21.428Z,9.20
2023-05-02T08:38:21.391Z,10.30
2023-05-02T08:39:21.385Z,9.80
2023-05-02T08:40:30.408Z,9.50
2023-05-02T08:41:22.385Z,12.90
2023-05-02T08:42:21.341Z,12.00
2023-05-02T08:43:21.325Z,11.30
2023-05-02T08:44:21.305Z,11.80
2023-05-02T08:45:21.299Z,11.30
2023-05-02T08:46:21.343Z,8.80
2023-05-02T08:47:21.582Z,12.00
2023-05-02T08:48:21.364Z,10.50
2023-05-02T08:49:21.260Z,13.60
2023-05-02T08:50:21.216Z,10.40
2023-05-02T08:51:21.230Z,12.30
2023-05-02T08:52:21.215Z,12.10
2023-05-02T08:53:21.206Z,13.10
2023-05-02T08:54:21.170Z,7.70
2023-05-02T08:55:21.146Z,12.90
2023-05-02T08:56:21.176Z,10.70
2023-05-02T08:57:21.130Z,11.40
2023-05-02T08:58:21.110Z,8.90
2023-05-02T08:59:21.105Z,7.30
2023-05-02T09:00:21.090Z,14.70
2023-05-02T09:01:21.460Z,12.70
2023-05-02T09:02:21.159Z,9.50
2023-05-02T09:03:23.343Z,10.20
2023-05-02T09:04:21.033Z,8.40
2023-05-02T09:05:21.028Z,10.10
2023-05-02T09:06:21.055Z,11.10
2023-05-02T09:07:20.992Z,8.70
2023-05-02T09:08:20.976Z,11.80
2023-05-02T09:09:20.958Z,12.00
2023-05-02T09:10:20.968Z,8.30
2023-05-02T09:11:20.959Z,12.10
2023-05-02T09:12:20.931Z,10.10
2023-05-02T09:13:21.108Z,13.20
2023-05-02T09:14:20.901Z,10.30
2023-05-02T09:15:21.121Z,10.40
2023-05-02T09:16:20.912Z,13.20
2023-05-02T09:17:20.863Z,9.90
2023-05-02T09:18:20.845Z,11.70
2023-05-02T09:19:20.847Z,13.00
2023-05-02T09:20:20.854Z,11.10
2023-05-02T09:21:21.423Z,14.20
2023-05-02T09:22:20.800Z,15.90
2023-05-02T09:23:20.760Z,11.00
2023-05-02T09:24:20.782Z,17.40
2023-05-02T09:25:20.732Z,18.10
2023-05-02T09:26:20.765Z,14.10
2023-05-02T09:27:20.711Z,13.10
2023-05-02T09:28:20.705Z,12.70
2023-05-02T09:29:20.696Z,13.30
2023-05-02T09:30:20.688Z,14.10
2023-05-02T09:31:43.526Z,13.50
2023-05-02T09:32:21.880Z,15.40
2023-05-02T09:33:20.619Z,14.30
2023-05-02T09:34:20.642Z,13.30
2023-05-02T09:35:20.605Z,12.70
2023-05-02T09:36:20.614Z,19.00
2023-05-02T09:37:20.594Z,16.10
2023-05-02T09:38:20.565Z,18.90
2023-05-02T09:39:22.506Z,24.60
2023-05-02T09:40:20.537Z,21.80
2023-05-02T09:41:20.554Z,15.50
2023-05-02T09:42:20.504Z,17.70
2023-05-02T09:43:20.506Z,12.00
2023-05-02T09:44:20.497Z,19.80
2023-05-02T09:45:20.486Z,16.90
2023-05-02T09:46:20.557Z,18.70
2023-05-02T09:47:20.437Z,19.10
2023-05-02T09:48:20.430Z,17.60
2023-05-02T09:49:20.428Z,17.80
2023-05-02T09:50:20.437Z,24.60
2023-05-02T09:51:20.378Z,25.60
2023-05-02T09:52:20.387Z,26.20
2023-05-02T09:53:20.376Z,26.50
2023-05-02T09:54:20.353Z,27.70
2023-05-02T09:55:20.393Z,30.90
2023-05-02T09:56:20.344Z,27.60
2023-05-02T09:57:20.306Z,20.10
2023-05-02T09:58:20.295Z,18.50
2023-05-02T09:59:20.443Z,17.60
2023-05-02T10:00:20.291Z,19.90
2023-05-02T10:01:20.317Z,18.90
2023-05-02T10:02:20.366Z,16.90
2023-05-02T10:03:20.230Z,15.20
2023-05-02T10:04:20.326Z,13.70
2023-05-02T10:05:20.225Z,17.30
2023-05-02T10:06:20.227Z,12.70
2023-05-02T10:07:20.170Z,13.50
2023-05-02T10:08:20.375Z,11.60
2023-05-02T10:09:21.701Z,12.90
2023-05-02T10:10:20.169Z,14.60
2023-05-02T10:11:20.152Z,16.20
2023-05-02T10:12:20.203Z,20.80
2023-05-02T10:13:20.109Z,15.90
2023-05-02T10:14:20.079Z,13.70
2023-05-02T10:15:20.078Z,10.10
2023-05-02T10:16:20.140Z,10.80
2023-05-02T10:17:20.033Z,11.30
2023-05-02T10:18:20.031Z,11.90
2023-05-02T10:19:19.999Z,10.60
2023-05-02T10:20:20.003Z,12.60
2023-05-02T10:21:20.106Z,13.60
2023-05-02T10:22:19.992Z,9.80
2023-05-02T10:23:19.942Z,11.70
2023-05-02T10:24:19.994Z,14.10
2023-05-02T10:25:19.937Z,8.00
2023-05-02T10:26:19.937Z,10.40
2023-05-02T10:27:19.917Z,9.20
2023-05-02T10:28:19.898Z,7.60
2023-05-02T10:29:19.889Z,10.80
2023-05-02T10:30:19.859Z,7.30
2023-05-02T10:31:19.886Z,8.10
2023-05-02T10:32:19.869Z,9.30
2023-05-02T10:33:19.821Z,8.10
2023-05-02T10:34:19.817Z,7.50
2023-05-02T10:35:19.780Z,10.60
2023-05-02T10:36:20.015Z,12.20
2023-05-02T10:37:19.773Z,10.80
2023-05-02T10:38:21.073Z,7.80
2023-05-02T10:39:19.740Z,10.80
2023-05-02T10:40:19.755Z,8.80
2023-05-02T10:41:19.726Z,10.10
2023-05-02T10:42:19.697Z,10.60
2023-05-02T10:43:19.692Z,10.90
2023-05-02T10:44:19.738Z,13.10
2023-05-02T10:45:19.659Z,15.10
2023-05-02T10:46:19.724Z,15.70
2023-05-02T10:47:19.668Z,10.60
2023-05-02T10:48:19.649Z,10.90
2023-05-02T10:49:19.594Z,17.90
2023-05-02T10:50:19.678Z,14.80
2023-05-02T10:51:19.570Z,13.60
2023-05-02T10:52:19.558Z,13.70
2023-05-02T10:53:19.570Z,14.00
2023-05-02T10:54:19.568Z,14.60
2023-05-02T10:55:19.629Z,15.20
2023-05-02T10:56:19.512Z,15.60
2023-05-02T10:57:19.493Z,13.00
2023-05-02T10:58:19.491Z,14.80
2023-05-02T10:59:19.459Z,11.60
2023-05-02T11:00:19.478Z,18.40
2023-05-02T11:01:19.572Z,11.90
2023-05-02T11:02:19.438Z,10.60
2023-05-02T11:03:19.407Z,14.60
2023-05-02T11:04:19.383Z,17.50
2023-05-02T11:05:19.395Z,10.90
2023-05-02T11:06:19.398Z,8.20
2023-05-02T11:07:19.372Z,14.10
2023-05-02T11:08:21.271Z,17.30
2023-05-02T11:09:19.315Z,16.10
2023-05-02T11:10:19.331Z,13.80
2023-05-02T11:11:19.288Z,10.20
2023-05-02T11:12:19.284Z,9.70
2023-05-02T11:13:19.268Z,16.60
2023-05-02T11:14:20.292Z,16.40
2023-05-02T11:15:19.280Z,21.70
2023-05-02T11:16:19.303Z,17.70
2023-05-02T11:17:19.264Z,15.20
2023-05-02T11:18:19.224Z,13.60
2023-05-02T11:19:19.212Z,17.40
2023-05-02T11:20:19.257Z,15.60
2023-05-02T11:21:19.222Z,17.70
2023-05-02T11:22:19.198Z,17.40
2023-05-02T11:23:19.157Z,15.00
2023-05-02T11:24:19.116Z,19.00
2023-05-02T11:25:19.214Z,20.20
2023-05-02T11:26:19.127Z,17.90
2023-05-02T11:27:19.087Z,18.40
2023-05-02T11:28:19.081Z,17.90
2023-05-02T11:29:19.110Z,17.60
2023-05-02T11:30:19.050Z,15.70
2023-05-02T11:31:19.043Z,13.70
2023-05-02T11:32:19.034Z,12.40
2023-05-02T11:33:19.024Z,14.40
2023-05-02T11:34:18.987Z,13.90
2023-05-02T11:35:19.001Z,13.20
2023-05-02T11:36:18.996Z,12.10
2023-05-02T11:37:18.950Z,12.60
2023-05-02T11:38:18.915Z,10.70
2023-05-02T11:39:18.956Z,12.80
2023-05-02T11:40:18.945Z,11.30
2023-05-02T11:41:18.901Z,12.10
2023-05-02T11:42:18.874Z,14.80
2023-05-02T11:43:18.868Z,13.00
2023-05-02T11:44:18.853Z,12.60
2023-05-02T11:45:19.069Z,11.70
2023-05-02T11:46:19.098Z,14.60
2023-05-02T11:47:18.820Z,13.80
2023-05-02T11:48:18.799Z,16.80
2023-05-02T11:49:18.804Z,16.00
2023-05-02T11:50:18.764Z,13.30
2023-05-02T11:51:18.777Z,15.40
2023-05-02T11:52:18.737Z,13.40
2023-05-02T11:53:18.768Z,16.40
2023-05-02T11:54:18.719Z,10.10
2023-05-02T11:55:18.724Z,11.70
2023-05-02T11:56:18.693Z,13.40
2023-05-02T11:57:18.690Z,12.30
2023-05-02T11:58:18.708Z,12.30
2023-05-02T11:59:18.678Z,10.70
2023-05-02T12:00:18.686Z,13.20
2023-05-02T12:01:18.618Z,11.10
2023-05-02T12:02:18.665Z,13.00
2023-05-02T12:03:18.713Z,11.50
2023-05-02T12:04:18.589Z,13.20
2023-05-02T12:05:18.624Z,14.50
2023-05-02T12:06:18.942Z,12.20
2023-05-02T12:07:18.582Z,10.90
2023-05-02T12:08:18.539Z,14.80
2023-05-02T12:09:18.506Z,17.60
2023-05-02T12:10:18.578Z,14.50
2023-05-02T12:11:18.532Z,15.80
2023-05-02T12:12:18.467Z,13.10
2023-05-02T12:13:18.475Z,14.90
2023-05-02T12:14:18.470Z,14.80
2023-05-02T12:15:18.457Z,15.30
2023-05-02T12:16:18.501Z,11.40
2023-05-02T12:17:18.431Z,11.60
2023-05-02T12:18:20.685Z,11.70
2023-05-02T12:19:18.406Z,10.70
2023-05-02T12:20:18.423Z,14.90
2023-05-02T12:21:18.347Z,13.20
2023-05-02T12:22:18.324Z,12.60
2023-05-02T12:23:18.360Z,12.40
2023-05-02T12:24:18.305Z,11.20
2023-05-02T12:25:18.351Z,8.90
2023-05-02T12:26:18.287Z,11.00
2023-05-02T12:27:18.262Z,9.90
2023-05-02T12:28:18.272Z,9.50
2023-05-02T12:29:18.234Z,8.70
2023-05-02T12:30:18.273Z,12.60
2023-05-02T12:31:18.245Z,10.80
2023-05-02T12:32:18.273Z,12.90
2023-05-02T12:33:18.195Z,10.80
2023-05-02T12:34:18.165Z,12.20
2023-05-02T12:35:18.209Z,11.70
2023-05-02T12:36:18.208Z,13.60
2023-05-02T12:37:18.139Z,13.60
2023-05-02T12:38:18.138Z,11.80
2023-05-02T12:39:18.107Z,13.20
2023-05-02T12:40:18.134Z,11.20
2023-05-02T12:41:18.080Z,10.40
2023-05-02T12:42:18.080Z,11.40
2023-05-02T12:43:18.069Z,10.70
2023-05-02T12:44:18.085Z,10.20
2023-05-02T12:45:18.149Z,8.70
2023-05-02T12:46:18.087Z,13.10
2023-05-02T12:47:18.123Z,9.20
2023-05-02T12:48:17.985Z,8.40
2023-05-02T12:49:17.988Z,13.50
2023-05-02T12:50:17.997Z,12.00
2023-05-02T12:51:17.939Z,11.80